Sondheim, Germany

1:27 PM CEST on April 27, 2017 (GMT +0200)
freies Feld | | Change Station

Elev 1339 ft 50.42 °N, 10.09 °E | Updated 4 seconds ago

Mostly Cloudy
Mostly Cloudy
44.8 °F
Feels Like 45 °F
N
0.9
Wind Variable Wind from NNE
Gusts 2.5 mph

Today
High -- | Low -- °F
--% Chance of Precip.
Yesterday
High -- | Low -- °F
Precip. -- in
Pressure 29.95 in
Visibility 6.2 miles
Clouds Scattered Clouds 3300 ft
Scattered Clouds 7300 ft
Windchill 45 °F
Dew Point 19 °F
Humidity 35%
Rainfall 0.00 in
Snow Depth Not available.
6:01 AM 8:33 PM
New Moon, 1% visible
METAR EDDE 271050Z 32003KT 210V020 9999 VCSH SCT033CB SCT073 08/01 Q1014 TEMPO SHRA
Pressure 29.95 in
Visibility 6.2 miles
Clouds Scattered Clouds 3300 ft
Scattered Clouds 7300 ft
Windchill 45 °F
Dew Point 19 °F
Humidity 35%
Rainfall 0.00 in
Snow Depth Not available.
6:01 AM 8:33 PM
New Moon, 1% visible
METAR EDDE 271050Z 32003KT 210V020 9999 VCSH SCT033CB SCT073 08/01 Q1014 TEMPO SHRA

Get Severe Weather Alerts

Thanks for signing up!

Be on the lookout for a verification email in your inbox.

You'll start receiving the daily forecast at 8 AM.

×

10-Day Weather Forecast

×

Almanac

Astronomy

Apr. 27, 2017 Rise Set
Actual Time
Civil Twilight
Nautical Twilight
Astronomical Twilight
Moon
Length of Visible Light
Length of Day
Tomorrow will be .
, % of the Moon is Illuminated

Today's Extremes

Country Highs Country Lows

Community

WunderPhotos

WunderBlog® & News

Nearby

Air Quality

  Air Quality AQ Index Pollutant
Not available.

Snow Depth

Station Depth Elevation

Earthquake Activity

City Distance Mag. Time & Date
Minimum magnitude displayed is 2.5.

Coastal Water Temperatures

Place Temperature

Stations

Nearby Weather Stations

Station Location Temp. Windchill Dew Point Humidity Wind Precip. Elev Updated Type